sensor_id;sensor_type;location;lat;lon;timestamp;P1;durP1;ratioP1;P2;durP2;ratioP2
32501;SDS011;18952;52.516;13.460;2023-04-24T00:01:11;7.88;;;6.05;;
32501;SDS011;18952;52.516;13.460;2023-04-24T00:03:38;7.93;;;5.80;;
32501;SDS011;18952;52.516;13.460;2023-04-24T00:06:08;10.73;;;5.72;;
32501;SDS011;18952;52.516;13.460;2023-04-24T00:08:35;6.35;;;5.68;;
32501;SDS011;18952;52.516;13.460;2023-04-24T00:11:02;7.13;;;6.18;;
32501;SDS011;18952;52.516;13.460;2023-04-24T00:13:28;6.20;;;5.53;;
32501;SDS011;18952;52.516;13.460;2023-04-24T00:15:55;6.60;;;5.90;;
32501;SDS011;18952;52.516;13.460;2023-04-24T00:18:22;6.07;;;5.47;;
32501;SDS011;18952;52.516;13.460;2023-04-24T00:20:49;9.68;;;6.40;;
32501;SDS011;18952;52.516;13.460;2023-04-24T00:23:15;7.85;;;5.95;;
32501;SDS011;18952;52.516;13.460;2023-04-24T00:25:43;6.13;;;5.50;;
32501;SDS011;18952;52.516;13.460;2023-04-24T00:28:11;8.75;;;6.00;;
32501;SDS011;18952;52.516;13.460;2023-04-24T00:30:39;6.90;;;5.78;;
32501;SDS011;18952;52.516;13.460;2023-04-24T00:33:07;6.28;;;5.50;;
32501;SDS011;18952;52.516;13.460;2023-04-24T00:35:36;7.03;;;5.50;;
32501;SDS011;18952;52.516;13.460;2023-04-24T00:38:06;6.78;;;5.97;;
32501;SDS011;18952;52.516;13.460;2023-04-24T00:40:36;10.23;;;6.20;;
32501;SDS011;18952;52.516;13.460;2023-04-24T00:43:02;8.65;;;5.57;;
32501;SDS011;18952;52.516;13.460;2023-04-24T00:45:29;7.90;;;6.55;;
32501;SDS011;18952;52.516;13.460;2023-04-24T00:47:56;10.20;;;6.13;;
32501;SDS011;18952;52.516;13.460;2023-04-24T00:50:23;6.22;;;5.63;;
32501;SDS011;18952;52.516;13.460;2023-04-24T00:52:50;6.32;;;5.72;;
32501;SDS011;18952;52.516;13.460;2023-04-24T00:55:17;6.55;;;5.88;;
32501;SDS011;18952;52.516;13.460;2023-04-24T00:57:45;7.13;;;5.88;;
32501;SDS011;18952;52.516;13.460;2023-04-24T01:00:14;6.95;;;6.05;;
32501;SDS011;18952;52.516;13.460;2023-04-24T01:02:43;9.80;;;6.07;;
32501;SDS011;18952;52.516;13.460;2023-04-24T01:05:11;9.65;;;6.53;;
32501;SDS011;18952;52.516;13.460;2023-04-24T01:07:40;9.15;;;6.60;;
32501;SDS011;18952;52.516;13.460;2023-04-24T01:10:09;7.63;;;6.22;;
32501;SDS011;18952;52.516;13.460;2023-04-24T01:12:36;7.13;;;6.40;;
32501;SDS011;18952;52.516;13.460;2023-04-24T01:15:03;6.78;;;6.05;;
32501;SDS011;18952;52.516;13.460;2023-04-24T01:17:32;6.75;;;6.05;;
32501;SDS011;18952;52.516;13.460;2023-04-24T01:19:59;8.07;;;6.20;;
32501;SDS011;18952;52.516;13.460;2023-04-24T01:22:26;8.77;;;6.88;;
32501;SDS011;18952;52.516;13.460;2023-04-24T01:24:54;8.25;;;6.65;;
32501;SDS011;18952;52.516;13.460;2023-04-24T01:27:26;7.30;;;6.63;;
32501;SDS011;18952;52.516;13.460;2023-04-24T01:29:55;6.90;;;6.20;;
32501;SDS011;18952;52.516;13.460;2023-04-24T01:32:23;9.55;;;6.47;;
32501;SDS011;18952;52.516;13.460;2023-04-24T01:34:51;6.55;;;5.90;;
32501;SDS011;18952;52.516;13.460;2023-04-24T01:37:21;8.57;;;5.93;;
32501;SDS011;18952;52.516;13.460;2023-04-24T01:39:47;7.07;;;6.38;;
32501;SDS011;18952;52.516;13.460;2023-04-24T01:42:14;7.85;;;6.07;;
32501;SDS011;18952;52.516;13.460;2023-04-24T01:44:42;7.43;;;5.72;;
32501;SDS011;18952;52.516;13.460;2023-04-24T01:47:09;6.78;;;6.10;;
32501;SDS011;18952;52.516;13.460;2023-04-24T01:49:37;7.03;;;5.82;;
32501;SDS011;18952;52.516;13.460;2023-04-24T01:52:04;8.13;;;6.35;;
32501;SDS011;18952;52.516;13.460;2023-04-24T01:54:31;6.85;;;6.25;;
32501;SDS011;18952;52.516;13.460;2023-04-24T01:56:58;8.15;;;6.05;;
32501;SDS011;18952;52.516;13.460;2023-04-24T01:59:25;7.47;;;6.22;;
32501;SDS011;18952;52.516;13.460;2023-04-24T02:01:54;9.95;;;6.00;;
32501;SDS011;18952;52.516;13.460;2023-04-24T02:04:21;6.32;;;5.80;;
32501;SDS011;18952;52.516;13.460;2023-04-24T02:06:48;9.73;;;6.47;;
32501;SDS011;18952;52.516;13.460;2023-04-24T02:09:15;8.70;;;6.50;;
32501;SDS011;18952;52.516;13.460;2023-04-24T02:11:42;8.55;;;6.50;;
32501;SDS011;18952;52.516;13.460;2023-04-24T02:14:10;7.05;;;6.35;;
32501;SDS011;18952;52.516;13.460;2023-04-24T02:16:37;9.30;;;6.60;;
32501;SDS011;18952;52.516;13.460;2023-04-24T02:19:06;7.68;;;6.85;;
32501;SDS011;18952;52.516;13.460;2023-04-24T02:21:44;8.98;;;6.88;;
32501;SDS011;18952;52.516;13.460;2023-04-24T02:24:12;8.68;;;7.10;;
32501;SDS011;18952;52.516;13.460;2023-04-24T02:26:40;8.35;;;6.70;;
32501;SDS011;18952;52.516;13.460;2023-04-24T02:29:09;7.78;;;6.90;;
32501;SDS011;18952;52.516;13.460;2023-04-24T02:31:36;8.55;;;7.20;;
32501;SDS011;18952;52.516;13.460;2023-04-24T02:34:06;11.98;;;7.03;;
32501;SDS011;18952;52.516;13.460;2023-04-24T02:36:32;7.45;;;6.63;;
32501;SDS011;18952;52.516;13.460;2023-04-24T02:38:59;7.80;;;6.95;;
32501;SDS011;18952;52.516;13.460;2023-04-24T02:41:26;8.85;;;6.85;;
32501;SDS011;18952;52.516;13.460;2023-04-24T02:43:52;8.68;;;7.07;;
32501;SDS011;18952;52.516;13.460;2023-04-24T02:46:19;9.70;;;6.78;;
32501;SDS011;18952;52.516;13.460;2023-04-24T02:48:47;8.02;;;7.18;;
32501;SDS011;18952;52.516;13.460;2023-04-24T02:51:13;8.00;;;7.20;;
32501;SDS011;18952;52.516;13.460;2023-04-24T02:53:40;8.32;;;7.30;;
32501;SDS011;18952;52.516;13.460;2023-04-24T02:56:08;8.70;;;7.40;;
32501;SDS011;18952;52.516;13.460;2023-04-24T02:58:35;9.88;;;7.68;;
32501;SDS011;18952;52.516;13.460;2023-04-24T03:01:02;11.07;;;8.07;;
32501;SDS011;18952;52.516;13.460;2023-04-24T03:03:30;8.70;;;7.32;;
32501;SDS011;18952;52.516;13.460;2023-04-24T03:05:58;10.90;;;7.65;;
32501;SDS011;18952;52.516;13.460;2023-04-24T03:08:29;10.35;;;7.63;;
32501;SDS011;18952;52.516;13.460;2023-04-24T03:10:58;9.90;;;7.70;;
32501;SDS011;18952;52.516;13.460;2023-04-24T03:13:25;8.98;;;8.00;;
32501;SDS011;18952;52.516;13.460;2023-04-24T03:15:52;9.70;;;8.43;;
32501;SDS011;18952;52.516;13.460;2023-04-24T03:18:19;8.57;;;7.68;;
32501;SDS011;18952;52.516;13.460;2023-04-24T03:20:46;9.57;;;7.80;;
32501;SDS011;18952;52.516;13.460;2023-04-24T03:23:13;10.27;;;7.90;;
32501;SDS011;18952;52.516;13.460;2023-04-24T03:25:39;11.93;;;9.20;;
32501;SDS011;18952;52.516;13.460;2023-04-24T03:28:06;12.98;;;9.82;;
32501;SDS011;18952;52.516;13.460;2023-04-24T03:30:33;17.90;;;11.93;;
32501;SDS011;18952;52.516;13.460;2023-04-24T03:33:00;20.65;;;12.15;;
32501;SDS011;18952;52.516;13.460;2023-04-24T03:35:26;19.73;;;12.80;;
32501;SDS011;18952;52.516;13.460;2023-04-24T03:37:55;23.38;;;12.40;;
32501;SDS011;18952;52.516;13.460;2023-04-24T03:40:22;18.90;;;12.10;;
32501;SDS011;18952;52.516;13.460;2023-04-24T03:42:50;17.15;;;11.57;;
32501;SDS011;18952;52.516;13.460;2023-04-24T03:45:17;14.13;;;10.50;;
32501;SDS011;18952;52.516;13.460;2023-04-24T03:47:44;16.75;;;9.80;;
32501;SDS011;18952;52.516;13.460;2023-04-24T03:50:11;13.05;;;9.00;;
32501;SDS011;18952;52.516;13.460;2023-04-24T03:52:38;10.63;;;8.35;;
32501;SDS011;18952;52.516;13.460;2023-04-24T03:55:05;10.75;;;8.27;;
32501;SDS011;18952;52.516;13.460;2023-04-24T03:57:32;9.43;;;8.43;;
32501;SDS011;18952;52.516;13.460;2023-04-24T03:59:59;12.45;;;8.27;;
32501;SDS011;18952;52.516;13.460;2023-04-24T04:02:26;9.60;;;7.40;;
32501;SDS011;18952;52.516;13.460;2023-04-24T04:04:52;8.10;;;7.30;;
32501;SDS011;18952;52.516;13.460;2023-04-24T04:07:19;7.95;;;7.15;;
32501;SDS011;18952;52.516;13.460;2023-04-24T04:09:48;8.07;;;7.15;;
32501;SDS011;18952;52.516;13.460;2023-04-24T04:12:14;11.30;;;7.35;;
32501;SDS011;18952;52.516;13.460;2023-04-24T04:14:41;8.80;;;7.30;;
32501;SDS011;18952;52.516;13.460;2023-04-24T04:17:08;9.32;;;7.13;;
32501;SDS011;18952;52.516;13.460;2023-04-24T04:19:34;11.57;;;8.32;;
32501;SDS011;18952;52.516;13.460;2023-04-24T04:22:01;9.10;;;6.85;;
32501;SDS011;18952;52.516;13.460;2023-04-24T04:24:28;11.13;;;7.70;;
32501;SDS011;18952;52.516;13.460;2023-04-24T04:26:55;12.27;;;7.75;;
32501;SDS011;18952;52.516;13.460;2023-04-24T04:29:22;13.20;;;7.68;;
32501;SDS011;18952;52.516;13.460;2023-04-24T04:31:49;10.43;;;7.35;;
32501;SDS011;18952;52.516;13.460;2023-04-24T04:34:17;12.35;;;7.10;;
32501;SDS011;18952;52.516;13.460;2023-04-24T04:36:44;12.48;;;7.07;;
32501;SDS011;18952;52.516;13.460;2023-04-24T04:39:12;8.02;;;6.95;;
32501;SDS011;18952;52.516;13.460;2023-04-24T04:41:39;10.10;;;6.22;;
32501;SDS011;18952;52.516;13.460;2023-04-24T04:44:07;9.93;;;7.35;;
32501;SDS011;18952;52.516;13.460;2023-04-24T04:46:35;7.30;;;6.65;;
32501;SDS011;18952;52.516;13.460;2023-04-24T04:49:02;8.73;;;6.45;;
32501;SDS011;18952;52.516;13.460;2023-04-24T04:51:30;7.82;;;6.07;;
32501;SDS011;18952;52.516;13.460;2023-04-24T04:54:00;9.50;;;6.57;;
32501;SDS011;18952;52.516;13.460;2023-04-24T04:56:36;6.93;;;6.22;;
32501;SDS011;18952;52.516;13.460;2023-04-24T04:59:03;8.75;;;6.53;;
32501;SDS011;18952;52.516;13.460;2023-04-24T05:01:33;7.70;;;6.28;;
32501;SDS011;18952;52.516;13.460;2023-04-24T05:04:00;8.90;;;7.28;;
32501;SDS011;18952;52.516;13.460;2023-04-24T05:06:27;11.52;;;7.40;;
32501;SDS011;18952;52.516;13.460;2023-04-24T05:08:54;8.32;;;6.63;;
32501;SDS011;18952;52.516;13.460;2023-04-24T05:11:20;8.38;;;5.93;;
32501;SDS011;18952;52.516;13.460;2023-04-24T05:13:47;8.30;;;6.43;;
32501;SDS011;18952;52.516;13.460;2023-04-24T05:16:14;10.15;;;6.57;;
32501;SDS011;18952;52.516;13.460;2023-04-24T05:18:40;9.02;;;5.90;;
32501;SDS011;18952;52.516;13.460;2023-04-24T05:21:07;7.85;;;6.38;;
32501;SDS011;18952;52.516;13.460;2023-04-24T05:23:35;6.75;;;6.05;;
32501;SDS011;18952;52.516;13.460;2023-04-24T05:26:03;9.38;;;6.43;;
32501;SDS011;18952;52.516;13.460;2023-04-24T05:28:34;6.32;;;5.70;;
32501;SDS011;18952;52.516;13.460;2023-04-24T05:31:04;9.40;;;5.90;;
32501;SDS011;18952;52.516;13.460;2023-04-24T05:33:44;9.25;;;5.78;;
32501;SDS011;18952;52.516;13.460;2023-04-24T05:36:13;8.27;;;5.60;;
32501;SDS011;18952;52.516;13.460;2023-04-24T05:38:40;6.30;;;5.68;;
32501;SDS011;18952;52.516;13.460;2023-04-24T05:41:06;7.07;;;5.03;;
32501;SDS011;18952;52.516;13.460;2023-04-24T05:43:33;5.93;;;4.50;;
32501;SDS011;18952;52.516;13.460;2023-04-24T05:46:00;7.20;;;4.90;;
32501;SDS011;18952;52.516;13.460;2023-04-24T05:48:27;5.68;;;4.60;;
32501;SDS011;18952;52.516;13.460;2023-04-24T05:50:53;5.20;;;4.15;;
32501;SDS011;18952;52.516;13.460;2023-04-24T05:53:20;5.00;;;4.43;;
32501;SDS011;18952;52.516;13.460;2023-04-24T05:55:48;4.78;;;3.75;;
32501;SDS011;18952;52.516;13.460;2023-04-24T05:58:17;7.07;;;3.22;;
32501;SDS011;18952;52.516;13.460;2023-04-24T06:00:45;5.68;;;3.30;;
32501;SDS011;18952;52.516;13.460;2023-04-24T06:03:13;4.70;;;2.97;;
32501;SDS011;18952;52.516;13.460;2023-04-24T06:05:41;3.88;;;2.97;;
32501;SDS011;18952;52.516;13.460;2023-04-24T06:08:07;3.85;;;3.05;;
32501;SDS011;18952;52.516;13.460;2023-04-24T06:10:34;5.95;;;3.30;;
32501;SDS011;18952;52.516;13.460;2023-04-24T06:13:01;3.08;;;2.65;;
32501;SDS011;18952;52.516;13.460;2023-04-24T06:15:29;5.65;;;3.20;;
32501;SDS011;18952;52.516;13.460;2023-04-24T06:17:56;4.47;;;2.60;;
32501;SDS011;18952;52.516;13.460;2023-04-24T06:20:23;6.72;;;2.35;;
32501;SDS011;18952;52.516;13.460;2023-04-24T06:22:50;6.82;;;2.38;;
32501;SDS011;18952;52.516;13.460;2023-04-24T06:25:17;5.95;;;2.35;;
32501;SDS011;18952;52.516;13.460;2023-04-24T06:27:44;3.42;;;2.40;;
32501;SDS011;18952;52.516;13.460;2023-04-24T06:30:11;3.58;;;2.30;;
32501;SDS011;18952;52.516;13.460;2023-04-24T06:32:39;5.15;;;2.13;;
32501;SDS011;18952;52.516;13.460;2023-04-24T06:35:06;8.23;;;2.13;;
32501;SDS011;18952;52.516;13.460;2023-04-24T06:37:35;5.03;;;2.40;;
32501;SDS011;18952;52.516;13.460;2023-04-24T06:40:02;5.10;;;2.72;;
32501;SDS011;18952;52.516;13.460;2023-04-24T06:42:30;5.38;;;2.20;;
32501;SDS011;18952;52.516;13.460;2023-04-24T06:44:56;4.40;;;2.03;;
32501;SDS011;18952;52.516;13.460;2023-04-24T06:47:24;5.13;;;2.63;;
32501;SDS011;18952;52.516;13.460;2023-04-24T06:49:54;3.47;;;2.08;;
32501;SDS011;18952;52.516;13.460;2023-04-24T06:52:21;2.65;;;2.20;;
32501;SDS011;18952;52.516;13.460;2023-04-24T06:54:51;3.53;;;2.00;;
32501;SDS011;18952;52.516;13.460;2023-04-24T06:57:18;2.45;;;2.10;;
32501;SDS011;18952;52.516;13.460;2023-04-24T06:59:46;3.63;;;2.20;;
32501;SDS011;18952;52.516;13.460;2023-04-24T07:02:12;4.10;;;1.83;;
32501;SDS011;18952;52.516;13.460;2023-04-24T07:04:39;2.78;;;2.00;;
32501;SDS011;18952;52.516;13.460;2023-04-24T07:07:06;3.05;;;1.48;;
32501;SDS011;18952;52.516;13.460;2023-04-24T07:09:33;3.30;;;1.70;;
32501;SDS011;18952;52.516;13.460;2023-04-24T07:12:00;3.42;;;1.38;;
32501;SDS011;18952;52.516;13.460;2023-04-24T07:14:26;3.80;;;1.40;;
32501;SDS011;18952;52.516;13.460;2023-04-24T07:16:53;2.42;;;1.50;;
32501;SDS011;18952;52.516;13.460;2023-04-24T07:19:20;7.63;;;1.90;;
32501;SDS011;18952;52.516;13.460;2023-04-24T07:21:47;3.30;;;1.25;;
32501;SDS011;18952;52.516;13.460;2023-04-24T07:24:14;3.78;;;1.48;;
32501;SDS011;18952;52.516;13.460;2023-04-24T07:26:41;1.63;;;1.17;;
32501;SDS011;18952;52.516;13.460;2023-04-24T07:29:11;2.28;;;1.30;;
32501;SDS011;18952;52.516;13.460;2023-04-24T07:31:38;4.00;;;1.50;;
32501;SDS011;18952;52.516;13.460;2023-04-24T07:34:05;1.98;;;0.98;;
32501;SDS011;18952;52.516;13.460;2023-04-24T07:36:31;2.08;;;0.80;;
32501;SDS011;18952;52.516;13.460;2023-04-24T07:38:58;1.60;;;0.80;;
32501;SDS011;18952;52.516;13.460;2023-04-24T07:41:25;2.17;;;0.80;;
32501;SDS011;18952;52.516;13.460;2023-04-24T07:43:52;2.50;;;0.80;;
32501;SDS011;18952;52.516;13.460;2023-04-24T07:46:19;1.73;;;0.70;;
32501;SDS011;18952;52.516;13.460;2023-04-24T07:48:48;1.90;;;0.60;;
32501;SDS011;18952;52.516;13.460;2023-04-24T07:51:30;1.75;;;0.80;;
32501;SDS011;18952;52.516;13.460;2023-04-24T07:53:58;0.90;;;0.60;;
32501;SDS011;18952;52.516;13.460;2023-04-24T07:56:24;3.17;;;1.13;;
32501;SDS011;18952;52.516;13.460;2023-04-24T07:58:53;7.20;;;1.70;;
32501;SDS011;18952;52.516;13.460;2023-04-24T08:01:19;1.13;;;0.77;;
32501;SDS011;18952;52.516;13.460;2023-04-24T08:03:46;1.20;;;0.70;;
32501;SDS011;18952;52.516;13.460;2023-04-24T08:06:14;1.15;;;0.77;;
32501;SDS011;18952;52.516;13.460;2023-04-24T08:08:40;1.65;;;0.98;;
32501;SDS011;18952;52.516;13.460;2023-04-24T08:11:07;3.10;;;0.80;;
32501;SDS011;18952;52.516;13.460;2023-04-24T08:13:34;1.35;;;0.63;;
32501;SDS011;18952;52.516;13.460;2023-04-24T08:16:01;1.92;;;1.00;;
32501;SDS011;18952;52.516;13.460;2023-04-24T08:18:28;3.33;;;1.02;;
32501;SDS011;18952;52.516;13.460;2023-04-24T08:20:55;1.98;;;1.10;;
32501;SDS011;18952;52.516;13.460;2023-04-24T08:23:22;3.90;;;0.70;;
32501;SDS011;18952;52.516;13.460;2023-04-24T08:25:50;3.72;;;0.60;;
32501;SDS011;18952;52.516;13.460;2023-04-24T08:28:18;1.23;;;0.50;;
32501;SDS011;18952;52.516;13.460;2023-04-24T08:30:47;2.20;;;0.80;;
32501;SDS011;18952;52.516;13.460;2023-04-24T08:33:14;1.30;;;0.63;;
32501;SDS011;18952;52.516;13.460;2023-04-24T08:35:48;4.75;;;0.50;;
32501;SDS011;18952;52.516;13.460;2023-04-24T08:38:15;2.17;;;0.70;;
32501;SDS011;18952;52.516;13.460;2023-04-24T08:40:42;6.15;;;1.02;;
32501;SDS011;18952;52.516;13.460;2023-04-24T08:43:09;3.38;;;1.40;;
32501;SDS011;18952;52.516;13.460;2023-04-24T08:45:37;2.40;;;1.10;;
32501;SDS011;18952;52.516;13.460;2023-04-24T08:48:04;2.58;;;1.08;;
32501;SDS011;18952;52.516;13.460;2023-04-24T08:50:41;3.13;;;1.13;;
32501;SDS011;18952;52.516;13.460;2023-04-24T08:53:09;2.42;;;1.10;;
32501;SDS011;18952;52.516;13.460;2023-04-24T08:55:37;2.42;;;0.63;;
32501;SDS011;18952;52.516;13.460;2023-04-24T08:58:04;3.30;;;1.00;;
32501;SDS011;18952;52.516;13.460;2023-04-24T09:00:31;3.95;;;0.80;;
32501;SDS011;18952;52.516;13.460;2023-04-24T09:03:00;2.97;;;0.80;;
32501;SDS011;18952;52.516;13.460;2023-04-24T09:05:28;1.92;;;0.65;;
32501;SDS011;18952;52.516;13.460;2023-04-24T09:07:55;2.28;;;1.00;;
32501;SDS011;18952;52.516;13.460;2023-04-24T09:10:23;1.65;;;0.50;;
32501;SDS011;18952;52.516;13.460;2023-04-24T09:12:51;2.65;;;0.70;;
32501;SDS011;18952;52.516;13.460;2023-04-24T09:15:19;2.40;;;0.68;;
32501;SDS011;18952;52.516;13.460;2023-04-24T09:17:47;3.97;;;0.75;;
32501;SDS011;18952;52.516;13.460;2023-04-24T09:20:14;2.75;;;0.82;;
32501;SDS011;18952;52.516;13.460;2023-04-24T09:22:41;1.70;;;1.02;;
32501;SDS011;18952;52.516;13.460;2023-04-24T09:25:10;4.70;;;1.27;;
32501;SDS011;18952;52.516;13.460;2023-04-24T09:27:36;6.95;;;1.35;;
32501;SDS011;18952;52.516;13.460;2023-04-24T09:30:08;8.25;;;1.35;;
32501;SDS011;18952;52.516;13.460;2023-04-24T09:32:35;7.88;;;2.05;;
32501;SDS011;18952;52.516;13.460;2023-04-24T09:35:06;3.47;;;1.35;;
32501;SDS011;18952;52.516;13.460;2023-04-24T09:37:35;4.50;;;1.10;;
32501;SDS011;18952;52.516;13.460;2023-04-24T09:40:16;3.65;;;1.00;;
32501;SDS011;18952;52.516;13.460;2023-04-24T09:42:44;2.22;;;0.90;;
32501;SDS011;18952;52.516;13.460;2023-04-24T09:45:22;4.15;;;1.40;;
32501;SDS011;18952;52.516;13.460;2023-04-24T09:47:54;4.15;;;0.93;;
32501;SDS011;18952;52.516;13.460;2023-04-24T09:50:21;4.90;;;1.00;;
32501;SDS011;18952;52.516;13.460;2023-04-24T09:52:59;2.95;;;1.02;;
32501;SDS011;18952;52.516;13.460;2023-04-24T09:55:28;2.65;;;0.90;;
32501;SDS011;18952;52.516;13.460;2023-04-24T09:57:55;8.23;;;1.40;;
32501;SDS011;18952;52.516;13.460;2023-04-24T10:00:24;2.05;;;0.88;;
32501;SDS011;18952;52.516;13.460;2023-04-24T10:05:27;2.03;;;0.98;;
32501;SDS011;18952;52.516;13.460;2023-04-24T10:08:02;2.10;;;0.75;;
32501;SDS011;18952;52.516;13.460;2023-04-24T10:12:59;1.77;;;0.65;;
32501;SDS011;18952;52.516;13.460;2023-04-24T10:15:27;2.78;;;1.10;;
32501;SDS011;18952;52.516;13.460;2023-04-24T10:17:54;5.38;;;0.98;;
32501;SDS011;18952;52.516;13.460;2023-04-24T10:20:25;4.03;;;1.10;;
32501;SDS011;18952;52.516;13.460;2023-04-24T10:22:55;2.83;;;1.08;;
32501;SDS011;18952;52.516;13.460;2023-04-24T10:25:25;6.50;;;1.42;;
32501;SDS011;18952;52.516;13.460;2023-04-24T10:27:56;3.50;;;0.93;;
32501;SDS011;18952;52.516;13.460;2023-04-24T10:30:23;3.42;;;0.85;;
32501;SDS011;18952;52.516;13.460;2023-04-24T10:32:51;3.85;;;0.73;;
32501;SDS011;18952;52.516;13.460;2023-04-24T10:35:18;2.53;;;0.75;;
32501;SDS011;18952;52.516;13.460;2023-04-24T10:37:46;1.77;;;1.00;;
32501;SDS011;18952;52.516;13.460;2023-04-24T10:40:19;2.55;;;1.05;;
32501;SDS011;18952;52.516;13.460;2023-04-24T10:43:02;3.17;;;1.13;;
32501;SDS011;18952;52.516;13.460;2023-04-24T10:45:30;3.20;;;0.90;;
32501;SDS011;18952;52.516;13.460;2023-04-24T10:48:03;4.28;;;1.10;;
32501;SDS011;18952;52.516;13.460;2023-04-24T10:50:47;3.60;;;1.00;;
32501;SDS011;18952;52.516;13.460;2023-04-24T10:53:21;2.13;;;0.80;;
32501;SDS011;18952;52.516;13.460;2023-04-24T10:55:57;1.33;;;0.60;;
32501;SDS011;18952;52.516;13.460;2023-04-24T10:58:35;2.58;;;0.80;;
32501;SDS011;18952;52.516;13.460;2023-04-24T11:01:03;3.10;;;0.73;;
32501;SDS011;18952;52.516;13.460;2023-04-24T11:03:31;3.55;;;1.20;;
32501;SDS011;18952;52.516;13.460;2023-04-24T11:06:01;2.45;;;1.10;;
32501;SDS011;18952;52.516;13.460;2023-04-24T11:08:37;2.13;;;0.73;;
32501;SDS011;18952;52.516;13.460;2023-04-24T11:19:02;3.85;;;0.70;;
32501;SDS011;18952;52.516;13.460;2023-04-24T11:24:26;2.38;;;1.05;;
32501;SDS011;18952;52.516;13.460;2023-04-24T11:32:16;2.13;;;0.80;;
32501;SDS011;18952;52.516;13.460;2023-04-24T11:34:50;4.53;;;0.93;;
32501;SDS011;18952;52.516;13.460;2023-04-24T11:37:19;2.72;;;0.90;;
32501;SDS011;18952;52.516;13.460;2023-04-24T11:39:45;3.00;;;1.20;;
32501;SDS011;18952;52.516;13.460;2023-04-24T11:42:15;13.43;;;1.52;;
32501;SDS011;18952;52.516;13.460;2023-04-24T11:44:43;6.00;;;1.70;;
32501;SDS011;18952;52.516;13.460;2023-04-24T11:47:10;5.50;;;1.35;;
32501;SDS011;18952;52.516;13.460;2023-04-24T11:49:38;7.25;;;1.52;;
32501;SDS011;18952;52.516;13.460;2023-04-24T11:52:06;5.72;;;1.35;;
32501;SDS011;18952;52.516;13.460;2023-04-24T11:54:34;2.65;;;1.27;;
32501;SDS011;18952;52.516;13.460;2023-04-24T11:57:04;2.08;;;1.00;;
32501;SDS011;18952;52.516;13.460;2023-04-24T11:59:36;2.55;;;0.85;;
32501;SDS011;18952;52.516;13.460;2023-04-24T12:02:04;2.92;;;1.30;;
32501;SDS011;18952;52.516;13.460;2023-04-24T12:04:40;4.78;;;1.73;;
32501;SDS011;18952;52.516;13.460;2023-04-24T12:07:09;2.72;;;1.33;;
32501;SDS011;18952;52.516;13.460;2023-04-24T12:09:50;8.75;;;1.25;;
32501;SDS011;18952;52.516;13.460;2023-04-24T12:12:28;7.97;;;1.70;;
32501;SDS011;18952;52.516;13.460;2023-04-24T12:14:55;6.20;;;1.30;;
32501;SDS011;18952;52.516;13.460;2023-04-24T12:17:28;5.22;;;1.40;;
32501;SDS011;18952;52.516;13.460;2023-04-24T12:20:00;7.10;;;1.60;;
32501;SDS011;18952;52.516;13.460;2023-04-24T12:23:15;2.55;;;1.20;;
32501;SDS011;18952;52.516;13.460;2023-04-24T12:25:18;4.22;;;1.38;;
32501;SDS011;18952;52.516;13.460;2023-04-24T12:27:47;4.00;;;1.23;;
32501;SDS011;18952;52.516;13.460;2023-04-24T12:30:30;3.30;;;1.20;;
32501;SDS011;18952;52.516;13.460;2023-04-24T12:33:01;3.60;;;1.50;;
32501;SDS011;18952;52.516;13.460;2023-04-24T12:35:29;2.10;;;1.00;;
32501;SDS011;18952;52.516;13.460;2023-04-24T12:38:11;4.15;;;1.13;;
32501;SDS011;18952;52.516;13.460;2023-04-24T12:40:41;3.55;;;1.30;;
32501;SDS011;18952;52.516;13.460;2023-04-24T12:43:15;2.30;;;1.10;;
32501;SDS011;18952;52.516;13.460;2023-04-24T12:45:44;4.65;;;0.88;;
32501;SDS011;18952;52.516;13.460;2023-04-24T12:48:13;4.82;;;0.95;;
32501;SDS011;18952;52.516;13.460;2023-04-24T12:50:40;2.20;;;0.80;;
32501;SDS011;18952;52.516;13.460;2023-04-24T12:53:11;1.98;;;0.90;;
32501;SDS011;18952;52.516;13.460;2023-04-24T12:55:39;5.13;;;0.90;;
32501;SDS011;18952;52.516;13.460;2023-04-24T12:58:06;2.28;;;0.80;;
32501;SDS011;18952;52.516;13.460;2023-04-24T13:00:33;11.70;;;1.20;;
32501;SDS011;18952;52.516;13.460;2023-04-24T13:03:00;1.15;;;0.80;;
32501;SDS011;18952;52.516;13.460;2023-04-24T13:05:28;1.67;;;0.93;;
32501;SDS011;18952;52.516;13.460;2023-04-24T13:07:54;6.72;;;1.08;;
32501;SDS011;18952;52.516;13.460;2023-04-24T13:10:21;5.30;;;1.27;;
32501;SDS011;18952;52.516;13.460;2023-04-24T13:12:48;3.78;;;1.23;;
32501;SDS011;18952;52.516;13.460;2023-04-24T13:15:15;5.60;;;0.82;;
32501;SDS011;18952;52.516;13.460;2023-04-24T13:17:42;6.72;;;1.45;;
32501;SDS011;18952;52.516;13.460;2023-04-24T13:20:10;3.60;;;0.93;;
32501;SDS011;18952;52.516;13.460;2023-04-24T13:22:37;2.70;;;0.75;;
32501;SDS011;18952;52.516;13.460;2023-04-24T13:25:03;1.52;;;0.60;;
32501;SDS011;18952;52.516;13.460;2023-04-24T13:27:32;2.25;;;0.65;;
32501;SDS011;18952;52.516;13.460;2023-04-24T13:29:59;2.03;;;0.68;;
32501;SDS011;18952;52.516;13.460;2023-04-24T13:32:27;2.25;;;0.60;;
32501;SDS011;18952;52.516;13.460;2023-04-24T13:34:54;2.30;;;0.70;;
32501;SDS011;18952;52.516;13.460;2023-04-24T13:37:21;2.28;;;0.80;;
32501;SDS011;18952;52.516;13.460;2023-04-24T13:39:47;3.13;;;1.00;;
32501;SDS011;18952;52.516;13.460;2023-04-24T13:42:14;3.85;;;0.80;;
32501;SDS011;18952;52.516;13.460;2023-04-24T13:44:41;2.28;;;1.00;;
32501;SDS011;18952;52.516;13.460;2023-04-24T13:47:08;6.35;;;1.38;;
32501;SDS011;18952;52.516;13.460;2023-04-24T13:49:34;2.00;;;0.80;;
32501;SDS011;18952;52.516;13.460;2023-04-24T13:52:01;4.28;;;0.75;;
32501;SDS011;18952;52.516;13.460;2023-04-24T13:54:28;9.45;;;0.80;;
32501;SDS011;18952;52.516;13.460;2023-04-24T13:56:57;2.30;;;0.60;;
32501;SDS011;18952;52.516;13.460;2023-04-24T13:59:24;4.65;;;0.80;;
32501;SDS011;18952;52.516;13.460;2023-04-24T14:01:51;3.63;;;0.73;;
32501;SDS011;18952;52.516;13.460;2023-04-24T14:04:17;2.08;;;0.90;;
32501;SDS011;18952;52.516;13.460;2023-04-24T14:06:45;2.25;;;0.80;;
32501;SDS011;18952;52.516;13.460;2023-04-24T14:09:14;1.85;;;0.75;;
32501;SDS011;18952;52.516;13.460;2023-04-24T14:11:41;2.10;;;0.70;;
32501;SDS011;18952;52.516;13.460;2023-04-24T14:14:10;2.38;;;0.90;;
32501;SDS011;18952;52.516;13.460;2023-04-24T14:16:39;1.75;;;0.60;;
32501;SDS011;18952;52.516;13.460;2023-04-24T14:19:08;1.90;;;0.80;;
32501;SDS011;18952;52.516;13.460;2023-04-24T14:21:34;2.00;;;0.82;;
32501;SDS011;18952;52.516;13.460;2023-04-24T14:24:01;3.22;;;0.80;;
32501;SDS011;18952;52.516;13.460;2023-04-24T14:26:28;2.05;;;0.88;;
32501;SDS011;18952;52.516;13.460;2023-04-24T14:28:55;1.00;;;0.90;;
32501;SDS011;18952;52.516;13.460;2023-04-24T14:31:39;1.85;;;0.80;;
32501;SDS011;18952;52.516;13.460;2023-04-24T14:34:05;2.72;;;1.02;;
32501;SDS011;18952;52.516;13.460;2023-04-24T14:36:32;1.65;;;0.85;;
32501;SDS011;18952;52.516;13.460;2023-04-24T14:38:59;2.45;;;1.10;;
32501;SDS011;18952;52.516;13.460;2023-04-24T14:41:25;4.57;;;1.05;;
32501;SDS011;18952;52.516;13.460;2023-04-24T14:43:52;4.13;;;0.98;;
32501;SDS011;18952;52.516;13.460;2023-04-24T14:46:19;1.80;;;0.68;;
32501;SDS011;18952;52.516;13.460;2023-04-24T14:48:46;3.50;;;0.70;;
32501;SDS011;18952;52.516;13.460;2023-04-24T14:51:14;4.07;;;1.00;;
32501;SDS011;18952;52.516;13.460;2023-04-24T14:53:41;2.05;;;0.90;;
32501;SDS011;18952;52.516;13.460;2023-04-24T14:56:09;1.95;;;0.73;;
32501;SDS011;18952;52.516;13.460;2023-04-24T14:58:40;5.18;;;0.98;;
32501;SDS011;18952;52.516;13.460;2023-04-24T15:01:10;3.05;;;1.20;;